createdAt,value
2023-05-04T00:02:26.850Z,99.90
2023-05-04T00:04:54.355Z,99.90
2023-05-04T00:07:21.776Z,99.90
2023-05-04T00:09:50.458Z,99.90
2023-05-04T00:12:18.365Z,99.90
2023-05-04T00:14:45.572Z,99.90
2023-05-04T00:17:12.949Z,99.90
2023-05-04T00:19:42.439Z,99.90
2023-05-04T00:22:09.882Z,99.90
2023-05-04T00:24:37.096Z,99.90
2023-05-04T00:27:04.635Z,99.90
2023-05-04T00:29:31.979Z,99.90
2023-05-04T00:31:59.321Z,99.90
2023-05-04T00:34:26.622Z,99.90
2023-05-04T00:36:53.834Z,99.90
2023-05-04T00:39:20.971Z,99.90
2023-05-04T00:41:48.246Z,99.90
2023-05-04T00:44:15.506Z,99.90
2023-05-04T00:46:42.871Z,99.90
2023-05-04T00:49:10.847Z,99.90
2023-05-04T00:51:38.432Z,99.90
2023-05-04T00:54:05.689Z,99.90
2023-05-04T00:56:34.129Z,99.90
2023-05-04T00:59:01.274Z,99.90
2023-05-04T01:01:28.638Z,99.90
2023-05-04T01:03:56.823Z,99.90
2023-05-04T01:06:48.223Z,99.90
2023-05-04T01:09:23.869Z,99.90
2023-05-04T01:12:08.474Z,99.90
2023-05-04T01:14:37.056Z,99.90
2023-05-04T01:17:06.417Z,99.90
2023-05-04T01:19:34.832Z,99.90
2023-05-04T01:22:02.048Z,99.90
2023-05-04T01:24:29.935Z,99.90
2023-05-04T01:27:11.710Z,99.90
2023-05-04T01:29:49.493Z,99.90
2023-05-04T01:32:18.942Z,99.90
2023-05-04T01:34:46.500Z,99.90
2023-05-04T01:37:13.973Z,99.90
2023-05-04T01:39:41.364Z,99.90
2023-05-04T01:42:08.575Z,99.90
2023-05-04T01:44:35.878Z,99.90
2023-05-04T01:47:03.326Z,99.90
2023-05-04T01:49:30.525Z,99.90
2023-05-04T01:51:57.656Z,99.90
2023-05-04T01:54:24.928Z,99.90
2023-05-04T01:56:52.182Z,99.90
2023-05-04T01:59:19.388Z,99.90
2023-05-04T02:01:46.653Z,99.90
2023-05-04T02:04:13.911Z,99.90
2023-05-04T02:06:41.189Z,99.90
2023-05-04T02:09:08.377Z,99.90
2023-05-04T02:11:35.535Z,99.90
2023-05-04T02:14:02.827Z,99.90
2023-05-04T02:16:30.101Z,99.90
2023-05-04T02:18:57.404Z,99.90
2023-05-04T02:21:24.630Z,99.90
2023-05-04T02:23:52.127Z,99.90
2023-05-04T02:26:19.255Z,99.90
2023-05-04T02:28:46.465Z,99.90
2023-05-04T02:31:13.709Z,99.90
2023-05-04T02:33:40.920Z,99.90
2023-05-04T02:36:08.328Z,99.90
2023-05-04T02:38:35.565Z,99.90
2023-05-04T02:41:03.322Z,99.90
2023-05-04T02:43:30.651Z,99.90
2023-05-04T02:45:57.850Z,99.90
2023-05-04T02:48:25.622Z,99.90
2023-05-04T02:50:52.902Z,99.90
2023-05-04T02:53:20.121Z,99.90
2023-05-04T02:55:47.293Z,99.90
2023-05-04T02:58:14.503Z,99.90
2023-05-04T03:00:41.896Z,99.90
2023-05-04T03:03:09.078Z,99.90
2023-05-04T03:05:36.491Z,99.90
2023-05-04T03:08:03.711Z,99.90
2023-05-04T03:10:31.097Z,99.90
2023-05-04T03:12:58.300Z,99.90
2023-05-04T03:15:25.509Z,99.90
2023-05-04T03:17:52.714Z,99.90
2023-05-04T03:20:20.003Z,99.90
2023-05-04T03:22:47.150Z,99.90
2023-05-04T03:25:14.284Z,99.90
2023-05-04T03:27:41.482Z,99.90
2023-05-04T03:30:09.186Z,99.90
2023-05-04T03:32:36.485Z,99.90
2023-05-04T03:37:48.943Z,99.90
2023-05-04T03:40:16.348Z,99.90
2023-05-04T03:42:43.513Z,99.90
2023-05-04T03:45:11.185Z,99.90
2023-05-04T03:47:38.892Z,99.90
2023-05-04T03:50:06.919Z,99.90
2023-05-04T03:52:34.497Z,99.90
2023-05-04T03:55:01.760Z,99.90
2023-05-04T03:57:28.944Z,99.90
2023-05-04T03:59:57.797Z,99.90
2023-05-04T04:02:25.381Z,99.90
2023-05-04T04:04:52.552Z,99.90
2023-05-04T04:07:19.762Z,99.90
2023-05-04T04:09:47.372Z,99.90
2023-05-04T04:12:18.534Z,99.90
2023-05-04T04:14:47.077Z,99.90
2023-05-04T04:17:14.305Z,99.90
2023-05-04T04:19:41.446Z,99.90
2023-05-04T04:22:08.722Z,99.90
2023-05-04T04:24:35.906Z,99.90
2023-05-04T04:27:03.110Z,99.90
2023-05-04T04:29:30.373Z,99.90
2023-05-04T04:31:57.633Z,99.90
2023-05-04T04:34:24.880Z,99.90
2023-05-04T04:36:52.438Z,99.90
2023-05-04T04:39:19.526Z,99.90
2023-05-04T04:41:46.580Z,99.90
2023-05-04T04:44:14.749Z,99.90
2023-05-04T04:46:42.021Z,99.90
2023-05-04T04:49:09.141Z,99.90
2023-05-04T04:51:36.800Z,99.90
2023-05-04T04:54:03.895Z,99.90
2023-05-04T04:56:31.130Z,99.90
2023-05-04T04:58:58.233Z,99.90
2023-05-04T05:01:26.575Z,99.90
2023-05-04T05:03:53.707Z,99.90
2023-05-04T05:06:21.324Z,99.90
2023-05-04T05:08:48.478Z,99.90
2023-05-04T05:11:16.044Z,99.90
2023-05-04T05:13:43.301Z,99.70
2023-05-04T05:16:10.558Z,99.90
2023-05-04T05:18:37.720Z,98.60
2023-05-04T05:21:05.640Z,98.50
2023-05-04T05:23:32.752Z,99.90
2023-05-04T05:26:01.954Z,97.50
2023-05-04T05:28:30.533Z,97.20
2023-05-04T05:30:57.748Z,97.00
2023-05-04T05:33:24.958Z,95.90
2023-05-04T05:35:52.804Z,95.30
2023-05-04T05:38:20.122Z,93.80
2023-05-04T05:40:48.788Z,92.80
2023-05-04T05:43:16.018Z,93.10
2023-05-04T05:45:43.416Z,91.10
2023-05-04T05:48:10.644Z,90.70
2023-05-04T05:50:38.109Z,89.30
2023-05-04T05:53:05.311Z,86.80
2023-05-04T05:55:32.483Z,87.80
2023-05-04T05:57:59.688Z,90.10
2023-05-04T06:00:27.040Z,89.30
2023-05-04T06:02:56.135Z,87.10
2023-05-04T06:05:24.058Z,86.10
2023-05-04T06:07:51.236Z,86.50
2023-05-04T06:10:18.372Z,90.20
2023-05-04T06:12:45.627Z,88.00
2023-05-04T06:15:14.510Z,88.80
2023-05-04T06:17:42.119Z,88.10
2023-05-04T06:20:09.646Z,90.40
2023-05-04T06:22:36.831Z,82.40
2023-05-04T06:25:07.169Z,82.20
2023-05-04T06:27:35.585Z,82.10
2023-05-04T06:30:02.756Z,80.80
2023-05-04T06:32:30.034Z,83.40
2023-05-04T06:34:57.565Z,83.70
2023-05-04T06:37:24.825Z,81.40
2023-05-04T06:39:52.116Z,77.50
2023-05-04T06:42:19.208Z,75.40
2023-05-04T06:44:46.408Z,75.20
2023-05-04T06:47:13.667Z,76.20
2023-05-04T06:49:40.766Z,77.30
2023-05-04T06:52:07.845Z,77.50
2023-05-04T06:54:34.962Z,72.20
2023-05-04T06:57:03.668Z,71.50
2023-05-04T06:59:31.067Z,79.60
2023-05-04T07:01:58.354Z,75.40
2023-05-04T07:04:25.592Z,74.30
2023-05-04T07:06:52.979Z,68.70
2023-05-04T07:09:20.463Z,69.70
2023-05-04T07:11:48.847Z,65.60
2023-05-04T07:14:16.526Z,64.20
2023-05-04T07:16:43.810Z,63.30
2023-05-04T07:19:11.193Z,67.10
2023-05-04T07:21:38.471Z,62.50
2023-05-04T07:24:07.251Z,62.00
2023-05-04T07:26:34.459Z,61.60
2023-05-04T07:29:01.743Z,62.10
2023-05-04T07:31:30.479Z,63.80
2023-05-04T07:33:58.081Z,65.30
2023-05-04T07:36:26.800Z,62.60
2023-05-04T07:38:54.444Z,62.90
2023-05-04T07:41:21.799Z,61.40
2023-05-04T07:43:49.127Z,60.10
2023-05-04T07:46:16.638Z,60.10
2023-05-04T07:48:43.952Z,58.80
2023-05-04T07:51:15.018Z,59.60
2023-05-04T07:53:43.494Z,59.10
2023-05-04T07:56:12.860Z,60.60
2023-05-04T07:58:40.565Z,55.10
2023-05-04T08:01:08.102Z,54.20
2023-05-04T08:03:35.579Z,51.80
2023-05-04T08:06:03.034Z,52.80
2023-05-04T08:08:30.198Z,60.60
2023-05-04T08:11:07.900Z,54.40
2023-05-04T08:13:46.503Z,54.30
2023-05-04T08:16:13.921Z,57.90
2023-05-04T08:18:41.212Z,54.10
2023-05-04T08:21:08.620Z,52.70
2023-05-04T08:23:35.829Z,49.30
2023-05-04T08:26:03.988Z,52.00
2023-05-04T08:28:31.342Z,53.00
2023-05-04T08:30:58.721Z,52.60
2023-05-04T08:33:25.895Z,55.00
2023-05-04T08:35:52.957Z,50.30
2023-05-04T08:38:20.055Z,51.70
2023-05-04T08:40:49.221Z,52.10
2023-05-04T08:43:17.711Z,51.90
2023-05-04T08:45:46.000Z,52.80
2023-05-04T08:48:14.168Z,51.80
2023-05-04T08:50:41.536Z,50.90
2023-05-04T08:53:13.973Z,53.20
2023-05-04T08:55:44.272Z,50.00
2023-05-04T08:58:13.221Z,51.20
2023-05-04T09:00:41.178Z,52.70
2023-05-04T09:03:11.113Z,52.10
2023-05-04T09:05:39.252Z,49.00
2023-05-04T09:08:07.123Z,49.50
2023-05-04T09:10:34.870Z,56.00
2023-05-04T09:13:02.166Z,58.60
2023-05-04T09:15:29.567Z,49.20
2023-05-04T09:18:01.759Z,49.20
2023-05-04T09:20:30.254Z,51.80
2023-05-04T09:23:07.296Z,55.20
2023-05-04T09:25:35.636Z,50.80
2023-05-04T09:28:02.756Z,50.30
2023-05-04T09:30:29.845Z,51.30
2023-05-04T09:32:57.502Z,53.70
2023-05-04T09:35:33.552Z,49.50
2023-05-04T09:38:01.886Z,47.70
2023-05-04T09:40:41.477Z,49.80
2023-05-04T09:43:09.757Z,52.80
2023-05-04T09:45:44.129Z,46.40
2023-05-04T09:48:22.150Z,47.70
2023-05-04T09:50:53.158Z,46.80
2023-05-04T09:53:25.370Z,47.70
2023-05-04T09:56:20.384Z,45.70
2023-05-04T09:58:49.431Z,48.00
2023-05-04T10:01:17.303Z,45.70
2023-05-04T10:03:45.229Z,42.60
2023-05-04T10:06:12.826Z,45.10
2023-05-04T10:08:41.454Z,46.80
2023-05-04T10:11:08.924Z,49.10
2023-05-04T10:13:36.270Z,48.60
2023-05-04T10:16:19.493Z,51.50
2023-05-04T10:19:17.065Z,51.30
2023-05-04T10:22:02.999Z,50.00
2023-05-04T10:24:30.091Z,53.10
2023-05-04T10:27:04.794Z,53.90
2023-05-04T10:29:36.451Z,50.60
2023-05-04T10:32:04.248Z,48.90
2023-05-04T10:34:35.451Z,48.50
2023-05-04T10:37:04.477Z,51.00
2023-05-04T10:39:33.779Z,49.90
2023-05-04T10:42:05.720Z,51.60
2023-05-04T10:44:49.075Z,48.50
2023-05-04T10:47:27.326Z,49.10
2023-05-04T10:50:08.217Z,51.20
2023-05-04T10:52:48.851Z,54.10
2023-05-04T10:55:16.520Z,56.10
2023-05-04T10:57:57.616Z,55.00
2023-05-04T11:00:37.805Z,57.40
2023-05-04T11:03:07.013Z,58.20
2023-05-04T11:05:52.922Z,56.80
2023-05-04T11:08:28.901Z,59.00
2023-05-04T11:11:07.906Z,60.00
2023-05-04T11:13:36.539Z,60.70
2023-05-04T11:16:03.794Z,60.60
2023-05-04T11:18:34.559Z,58.70
2023-05-04T11:21:01.841Z,62.30
2023-05-04T11:23:29.305Z,62.30
2023-05-04T11:26:04.529Z,61.70
2023-05-04T11:28:36.330Z,67.30
2023-05-04T11:31:20.182Z,69.60
2023-05-04T11:33:52.770Z,69.40
2023-05-04T11:36:20.579Z,71.60
2023-05-04T11:38:48.210Z,73.30
2023-05-04T11:41:15.544Z,76.00
2023-05-04T11:43:45.395Z,74.40
2023-05-04T11:46:14.324Z,74.10
2023-05-04T11:48:41.860Z,79.10
2023-05-04T11:51:09.138Z,78.70
2023-05-04T11:53:40.878Z,81.40
2023-05-04T11:56:09.363Z,83.00
2023-05-04T11:58:36.971Z,85.40
2023-05-04T12:01:04.523Z,86.30
2023-05-04T12:03:51.129Z,87.80
2023-05-04T12:06:30.498Z,88.60
2023-05-04T12:09:03.093Z,90.60
2023-05-04T12:11:30.402Z,91.60
2023-05-04T12:14:07.240Z,92.10
2023-05-04T12:16:34.732Z,93.40
2023-05-04T12:19:07.725Z,93.30
2023-05-04T12:21:35.890Z,92.10
2023-05-04T12:24:04.160Z,92.60
2023-05-04T12:26:31.443Z,93.10
2023-05-04T12:28:58.836Z,92.60
2023-05-04T12:31:26.125Z,92.40
2023-05-04T12:33:53.235Z,91.00
2023-05-04T12:36:20.529Z,91.20
2023-05-04T12:38:47.589Z,88.60
2023-05-04T12:41:14.715Z,89.10
2023-05-04T12:43:43.245Z,86.30
2023-05-04T12:46:10.678Z,84.10
2023-05-04T12:48:37.901Z,80.30
2023-05-04T12:51:05.368Z,80.80
2023-05-04T12:53:32.776Z,81.10
2023-05-04T12:56:01.714Z,77.50
2023-05-04T12:58:29.179Z,79.00
2023-05-04T13:00:58.102Z,77.30
2023-05-04T13:03:25.490Z,73.90
2023-05-04T13:05:53.051Z,67.00
2023-05-04T13:08:20.325Z,63.50
2023-05-04T13:10:47.527Z,66.20
2023-05-04T13:13:19.663Z,63.40
2023-05-04T13:15:50.581Z,63.00
2023-05-04T13:18:17.732Z,65.80
2023-05-04T13:20:45.835Z,61.40
2023-05-04T13:23:14.160Z,58.60
2023-05-04T13:25:41.305Z,59.70
2023-05-04T13:28:08.486Z,59.00
2023-05-04T13:30:35.647Z,57.40
2023-05-04T13:33:07.684Z,58.90
2023-05-04T13:35:43.495Z,53.60
2023-05-04T13:38:10.881Z,53.70
2023-05-04T13:40:38.134Z,50.60
2023-05-04T13:43:05.437Z,49.50
2023-05-04T13:45:32.533Z,50.50
2023-05-04T13:47:59.667Z,48.00
2023-05-04T13:50:26.794Z,49.30
2023-05-04T13:52:53.942Z,46.50
2023-05-04T13:55:21.113Z,44.00
2023-05-04T13:57:48.984Z,42.80
2023-05-04T14:00:17.954Z,44.40
2023-05-04T14:02:45.404Z,46.90
2023-05-04T14:05:13.134Z,45.00
2023-05-04T14:07:40.416Z,45.50
2023-05-04T14:10:08.186Z,47.10
2023-05-04T14:12:35.405Z,45.60
2023-05-04T14:15:02.736Z,46.60
2023-05-04T14:17:29.913Z,47.90
2023-05-04T14:19:59.026Z,45.90
2023-05-04T14:22:26.306Z,44.40
2023-05-04T14:24:53.370Z,43.90
2023-05-04T14:27:21.300Z,44.80
2023-05-04T14:29:48.448Z,45.50
2023-05-04T14:32:15.849Z,44.30
2023-05-04T14:34:42.939Z,43.50
2023-05-04T14:37:09.986Z,43.10
2023-05-04T14:39:37.189Z,44.00
2023-05-04T14:42:04.522Z,42.90
2023-05-04T14:44:31.621Z,44.10
2023-05-04T14:46:58.758Z,45.80
2023-05-04T14:49:36.632Z,46.30
2023-05-04T14:52:04.996Z,45.70
2023-05-04T14:54:32.155Z,47.00
2023-05-04T14:57:00.135Z,47.00
2023-05-04T14:59:27.276Z,47.10
2023-05-04T15:01:55.408Z,48.20
2023-05-04T15:04:23.161Z,47.90
2023-05-04T15:06:50.601Z,48.20
2023-05-04T15:09:17.773Z,49.90
2023-05-04T15:11:44.943Z,47.30
2023-05-04T15:14:12.208Z,47.70
2023-05-04T15:16:41.346Z,44.80
2023-05-04T15:19:08.559Z,43.90
2023-05-04T15:21:35.774Z,46.10
2023-05-04T15:24:03.153Z,43.40
2023-05-04T15:26:31.291Z,41.70
2023-05-04T15:28:58.623Z,42.80
2023-05-04T15:31:25.851Z,38.50
2023-05-04T15:33:53.942Z,37.80
2023-05-04T15:36:21.504Z,40.40
2023-05-04T15:38:48.709Z,37.40
2023-05-04T15:41:16.080Z,39.10
2023-05-04T15:43:43.164Z,40.00
2023-05-04T15:46:10.352Z,40.40
2023-05-04T15:48:37.759Z,41.20
2023-05-04T15:51:11.909Z,41.40
2023-05-04T15:53:39.628Z,42.50
2023-05-04T15:56:08.016Z,42.90
2023-05-04T15:58:35.210Z,43.40
2023-05-04T16:01:04.401Z,43.90
2023-05-04T16:03:32.609Z,42.60
2023-05-04T16:05:59.814Z,42.40
2023-05-04T16:08:27.368Z,42.20
2023-05-04T16:10:55.432Z,41.60
2023-05-04T16:13:22.923Z,40.20
2023-05-04T16:15:51.667Z,38.40
2023-05-04T16:18:19.444Z,39.70
2023-05-04T16:20:48.192Z,39.10
2023-05-04T16:23:16.603Z,40.10
2023-05-04T16:25:44.304Z,41.30
2023-05-04T16:28:11.799Z,43.20
2023-05-04T16:30:39.133Z,43.50
2023-05-04T16:33:06.362Z,43.40
2023-05-04T16:35:34.849Z,43.70
2023-05-04T16:38:02.067Z,42.30
2023-05-04T16:40:29.336Z,43.10
2023-05-04T16:42:56.451Z,43.10
2023-05-04T16:45:25.743Z,45.10
2023-05-04T16:47:52.979Z,44.20
2023-05-04T16:50:20.308Z,43.70
2023-05-04T16:52:47.665Z,41.90
2023-05-04T16:55:14.845Z,42.60
2023-05-04T16:57:43.126Z,38.30
2023-05-04T17:00:11.092Z,41.40
2023-05-04T17:02:38.389Z,39.20
2023-05-04T17:05:07.046Z,36.10
2023-05-04T17:07:34.508Z,38.40
2023-05-04T17:10:01.757Z,36.90
2023-05-04T17:12:29.224Z,36.80
2023-05-04T17:14:56.688Z,37.60
2023-05-04T17:17:24.053Z,37.20
2023-05-04T17:19:51.393Z,39.90
2023-05-04T17:22:18.712Z,39.30
2023-05-04T17:24:45.998Z,40.50
2023-05-04T17:27:13.384Z,38.90
2023-05-04T17:29:41.356Z,39.90
2023-05-04T17:32:09.444Z,39.80
2023-05-04T17:34:36.856Z,40.40
2023-05-04T17:37:04.807Z,41.20
2023-05-04T17:39:31.994Z,41.40
2023-05-04T17:41:59.663Z,40.10
2023-05-04T17:44:29.089Z,41.60
2023-05-04T17:46:56.475Z,41.70
2023-05-04T17:49:23.667Z,40.40
2023-05-04T17:51:51.014Z,42.90
2023-05-04T17:54:18.096Z,43.10
2023-05-04T17:56:45.264Z,43.30
2023-05-04T17:59:12.557Z,43.20
2023-05-04T18:01:39.751Z,43.40
2023-05-04T18:04:06.994Z,43.10
2023-05-04T18:06:34.290Z,43.60
2023-05-04T18:09:01.571Z,44.20
2023-05-04T18:11:29.219Z,43.40
2023-05-04T18:13:57.232Z,44.60
2023-05-04T18:16:24.870Z,45.60
2023-05-04T18:18:52.896Z,45.10
2023-05-04T18:21:20.040Z,46.80
2023-05-04T18:23:47.224Z,47.50
2023-05-04T18:26:22.778Z,47.50
2023-05-04T18:28:50.376Z,46.90
2023-05-04T18:31:17.718Z,47.10
2023-05-04T18:33:45.273Z,47.10
2023-05-04T18:36:12.561Z,48.20
2023-05-04T18:38:39.827Z,48.10
2023-05-04T18:41:07.089Z,47.80
2023-05-04T18:43:34.259Z,48.60
2023-05-04T18:46:08.117Z,48.80
2023-05-04T18:48:35.323Z,48.60
2023-05-04T18:51:02.826Z,48.50
2023-05-04T18:53:30.068Z,49.00
2023-05-04T18:56:08.121Z,48.70
2023-05-04T18:58:39.010Z,49.30
2023-05-04T19:01:06.630Z,49.40
2023-05-04T19:03:34.024Z,50.50
2023-05-04T19:06:01.504Z,49.80
2023-05-04T19:08:29.165Z,51.20
2023-05-04T19:10:59.668Z,50.50
2023-05-04T19:13:27.043Z,50.30
2023-05-04T19:15:54.300Z,50.10
2023-05-04T19:18:22.265Z,50.50
2023-05-04T19:20:49.622Z,51.30
2023-05-04T19:23:16.903Z,51.40
2023-05-04T19:25:45.295Z,51.10
2023-05-04T19:28:12.714Z,51.50
2023-05-04T19:30:40.341Z,52.40
2023-05-04T19:33:10.458Z,53.10
2023-05-04T19:35:37.670Z,53.10
2023-05-04T19:38:06.804Z,53.40
2023-05-04T19:40:34.803Z,54.20
2023-05-04T19:43:02.068Z,54.60
2023-05-04T19:45:29.154Z,54.80
2023-05-04T19:47:56.844Z,54.60
2023-05-04T19:50:24.025Z,54.70
2023-05-04T19:52:51.962Z,54.80
2023-05-04T19:55:19.198Z,54.60
2023-05-04T19:57:48.003Z,55.50
2023-05-04T20:00:17.358Z,55.20
2023-05-04T20:02:44.834Z,55.20
2023-05-04T20:05:12.574Z,57.00
2023-05-04T20:07:40.131Z,58.40
2023-05-04T20:10:08.622Z,62.10
2023-05-04T20:12:36.407Z,62.30
2023-05-04T20:15:04.062Z,64.50
2023-05-04T20:17:31.822Z,63.20
2023-05-04T20:19:59.093Z,64.90
2023-05-04T20:22:26.159Z,66.90
2023-05-04T20:24:53.747Z,66.60
2023-05-04T20:27:20.903Z,65.50
2023-05-04T20:29:48.021Z,67.10
2023-05-04T20:32:15.476Z,65.70
2023-05-04T20:34:43.368Z,64.80
2023-05-04T20:37:10.660Z,64.90
2023-05-04T20:39:37.933Z,65.10
2023-05-04T20:42:05.901Z,64.80
2023-05-04T20:44:33.979Z,65.80
2023-05-04T20:47:01.230Z,69.40
2023-05-04T20:49:28.447Z,69.20
2023-05-04T20:51:55.660Z,68.40
2023-05-04T20:54:23.052Z,65.80
2023-05-04T20:56:50.278Z,65.30
2023-05-04T20:59:17.475Z,65.30
2023-05-04T21:01:44.833Z,65.50
2023-05-04T21:04:12.133Z,65.80
2023-05-04T21:06:39.451Z,66.00
2023-05-04T21:09:07.113Z,67.70
2023-05-04T21:11:34.516Z,68.80
2023-05-04T21:14:01.997Z,68.50
2023-05-04T21:16:29.396Z,69.20
2023-05-04T21:18:56.562Z,70.40
2023-05-04T21:21:23.895Z,70.40
2023-05-04T21:23:51.200Z,69.30
2023-05-04T21:26:18.474Z,70.40
2023-05-04T21:28:46.676Z,72.60
2023-05-04T21:31:13.920Z,69.80
2023-05-04T21:33:41.300Z,71.50
2023-05-04T21:36:15.056Z,73.20
2023-05-04T21:38:42.924Z,73.60
2023-05-04T21:41:17.003Z,73.40
2023-05-04T21:43:44.634Z,71.60
2023-05-04T21:46:13.052Z,72.90
2023-05-04T21:48:40.965Z,73.40
2023-05-04T21:51:08.441Z,73.80
2023-05-04T21:53:35.684Z,75.20
2023-05-04T21:56:12.250Z,80.20
2023-05-04T21:58:41.034Z,81.70
2023-05-04T22:01:09.276Z,84.40
2023-05-04T22:03:36.965Z,88.40
2023-05-04T22:06:04.581Z,90.30
2023-05-04T22:08:31.984Z,90.40
2023-05-04T22:10:59.136Z,91.00
2023-05-04T22:13:26.855Z,90.30
2023-05-04T22:15:54.611Z,89.20
2023-05-04T22:18:21.882Z,86.50
2023-05-04T22:20:49.167Z,84.40
2023-05-04T22:23:16.400Z,83.70
2023-05-04T22:25:43.572Z,83.40
2023-05-04T22:28:11.235Z,83.40
2023-05-04T22:30:38.489Z,83.30
2023-05-04T22:33:05.842Z,85.30
2023-05-04T22:35:33.085Z,85.70
2023-05-04T22:38:00.308Z,87.60
2023-05-04T22:40:27.605Z,86.00
2023-05-04T22:42:54.946Z,85.80
2023-05-04T22:45:22.320Z,83.70
2023-05-04T22:47:49.507Z,86.90
2023-05-04T22:50:17.697Z,88.50
2023-05-04T22:52:44.918Z,83.00
2023-05-04T22:55:12.549Z,81.60
2023-05-04T22:57:39.832Z,79.70
2023-05-04T23:00:08.328Z,80.80
2023-05-04T23:02:36.204Z,80.80
2023-05-04T23:05:04.246Z,77.50
2023-05-04T23:07:31.650Z,78.30
2023-05-04T23:09:59.869Z,78.00
2023-05-04T23:12:28.233Z,78.30
2023-05-04T23:14:55.485Z,76.30
2023-05-04T23:17:22.731Z,76.80
2023-05-04T23:19:50.307Z,76.20
2023-05-04T23:22:17.696Z,76.10
2023-05-04T23:24:45.023Z,76.20
2023-05-04T23:27:12.622Z,73.60
2023-05-04T23:29:39.802Z,75.00
2023-05-04T23:32:07.179Z,75.00
2023-05-04T23:34:34.415Z,75.20
2023-05-04T23:37:01.785Z,77.40
2023-05-04T23:39:28.996Z,75.20
2023-05-04T23:41:56.244Z,75.30
2023-05-04T23:44:23.521Z,75.30
2023-05-04T23:46:50.850Z,76.90
2023-05-04T23:49:17.998Z,75.70
2023-05-04T23:51:45.277Z,76.00
2023-05-04T23:54:12.384Z,75.70
2023-05-04T23:56:39.668Z,75.00
2023-05-04T23:59:06.896Z,74.20
